Time;durP1;ratioP1;P1;durP2;ratioP2;P2;SDS_P1;SDS_P2;PMS_P1;PMS_P2;Temp;Humidity;BMP_temperature;BMP_pressure;BME280_temperature;BME280_humidity;BME280_pressure;Samples;Min_cycle;Max_cycle;Signal;HPM_P1;HPM_P2
2023/04/14 00:00:37;;;;;;;9.10;2.80;;;4.70;99.90;;;5.35;100.00;97419.66;4976649;28;20485;-75
2023/04/14 00:03:06;;;;;;;4.17;2.20;;;4.70;99.90;;;5.34;100.00;97419.84;4973001;28;20547;-75
2023/04/14 00:05:36;;;;;;;6.63;2.57;;;4.70;99.90;;;5.31;100.00;97426.16;4976501;28;20511;-75
2023/04/14 00:08:07;;;;;;;4.00;2.37;;;4.70;99.90;;;5.26;100.00;97422.47;4978007;28;20465;-75
2023/04/14 00:10:38;;;;;;;7.40;3.13;;;4.70;99.90;;;5.19;100.00;97427.50;4974960;28;20459;-75
2023/04/14 00:13:10;;;;;;;4.40;2.57;;;4.60;99.90;;;5.18;100.00;97423.28;4975730;28;20474;-75
2023/04/14 00:15:41;;;;;;;13.13;2.90;;;4.60;99.90;;;5.12;100.00;97423.16;4975606;28;20472;-76
2023/04/14 00:18:11;;;;;;;14.73;2.90;;;4.50;99.90;;;5.16;100.00;97421.84;4976362;28;20514;-75
2023/04/14 00:20:40;;;;;;;9.30;2.90;;;4.50;99.90;;;5.16;100.00;97422.66;4976606;28;20598;-75
2023/04/14 00:23:10;;;;;;;13.87;3.47;;;4.50;99.90;;;5.19;100.00;97419.72;4974931;28;20477;-75
2023/04/14 00:25:40;;;;;;;19.70;4.37;;;4.50;99.90;;;5.18;100.00;97420.69;4977550;28;20497;-76
2023/04/14 00:28:12;;;;;;;7.70;3.00;;;4.50;99.90;;;5.10;100.00;97420.75;4974314;28;21319;-75
2023/04/14 00:30:42;;;;;;;6.17;3.20;;;4.50;99.90;;;4.97;100.00;97420.47;4975601;28;20470;-75
2023/04/14 00:33:12;;;;;;;16.63;3.37;;;4.40;99.90;;;4.98;100.00;97416.91;4975608;28;21170;-76
2023/04/14 00:35:41;;;;;;;9.57;3.73;;;4.40;99.90;;;5.03;100.00;97414.63;4974014;28;20466;-75
2023/04/14 00:38:12;;;;;;;8.47;3.10;;;4.30;99.90;;;5.06;100.00;97424.66;4978747;28;20559;-75
2023/04/14 00:40:42;;;;;;;5.80;3.13;;;4.30;99.90;;;5.03;100.00;97432.75;4972500;28;20461;-75
2023/04/14 00:43:13;;;;;;;13.80;3.37;;;4.30;99.90;;;4.98;100.00;97435.03;4973736;28;20473;-75
2023/04/14 00:45:47;;;;;;;7.47;2.50;;;4.30;99.90;;;5.01;100.00;97442.47;4974948;28;20494;-76
2023/04/14 00:48:17;;;;;;;6.37;2.60;;;4.30;99.90;;;4.99;100.00;97439.25;4974286;28;20955;-75
2023/04/14 00:50:47;;;;;;;8.03;3.30;;;4.30;99.90;;;5.01;100.00;97455.41;4973416;28;20489;-75
2023/04/14 00:53:17;;;;;;;4.33;2.70;;;4.30;99.90;;;4.93;100.00;97455.44;4973989;28;20494;-75
2023/04/14 00:55:48;;;;;;;6.10;2.60;;;4.30;99.90;;;4.90;100.00;97458.38;4978310;28;21198;-75
2023/04/14 00:58:20;;;;;;;7.33;2.67;;;4.20;99.90;;;4.91;100.00;97453.03;4972896;28;20473;-75
2023/04/14 01:00:54;;;;;;;9.80;2.63;;;4.20;99.90;;;4.89;100.00;97455.00;4976199;28;20463;-76
2023/04/14 01:03:24;;;;;;;4.50;2.30;;;4.20;99.90;;;4.85;100.00;97456.28;4975854;28;20499;-76
2023/04/14 01:05:55;;;;;;;11.87;3.10;;;4.20;99.90;;;4.81;100.00;97460.19;4976809;28;20551;-75
2023/04/14 01:08:26;;;;;;;6.57;2.20;;;4.10;99.90;;;4.75;100.00;97466.03;4975458;28;20467;-77
2023/04/14 01:11:14;;;;;;;11.30;2.70;;;4.10;99.90;;;4.68;100.00;97456.47;4976352;28;20457;-75
2023/04/14 01:14:01;;;;;;;2.50;2.07;;;4.10;99.90;;;4.63;100.00;97462.16;4980057;28;20470;-75
2023/04/14 01:16:37;;;;;;;5.10;2.10;;;4.10;99.90;;;4.68;100.00;97462.47;4976463;28;20512;-75
2023/04/14 01:19:33;;;;;;;4.13;2.03;;;4.00;99.90;;;4.60;100.00;97461.66;4975765;28;20512;-75
2023/04/14 01:22:09;;;;;;;2.47;1.80;;;4.00;99.90;;;4.60;100.00;97453.91;4979376;28;20465;-75
2023/04/14 01:25:20;;;;;;;10.23;3.30;;;4.00;99.90;;;4.53;100.00;97449.38;4978550;28;20534;-76
2023/04/14 01:28:13;;;;;;;4.50;2.30;;;3.90;99.90;;;4.42;100.00;97457.47;4976982;28;20580;-76
2023/04/14 01:31:06;;;;;;;4.13;1.97;;;3.90;99.90;;;4.47;100.00;97457.00;4979736;28;21046;-75
2023/04/14 01:33:42;;;;;;;2.93;1.87;;;3.80;99.90;;;4.48;100.00;97456.81;4981230;28;20488;-75
2023/04/14 01:36:27;;;;;;;1.90;1.80;;;3.80;99.90;;;4.44;100.00;97460.69;4981173;28;20462;-75
2023/04/14 01:38:58;;;;;;;8.20;2.20;;;3.80;99.90;;;4.25;100.00;97455.88;4978482;28;20554;-75
2023/04/14 01:41:31;;;;;;;10.33;2.27;;;3.80;99.90;;;4.24;100.00;97463.78;4978430;28;20473;-75
2023/04/14 01:44:06;;;;;;;9.17;2.17;;;3.80;99.90;;;4.21;100.00;97464.91;4986728;28;20455;-75
2023/04/14 01:46:38;;;;;;;6.43;2.40;;;3.70;99.90;;;4.20;100.00;97468.47;4982404;28;20499;-75
2023/04/14 01:49:10;;;;;;;3.40;2.17;;;3.60;99.90;;;4.19;100.00;97469.47;4978974;28;20473;-75
2023/04/14 01:51:43;;;;;;;2.40;1.70;;;3.60;99.90;;;4.10;100.00;97467.81;4977756;28;20474;-75
2023/04/14 01:54:15;;;;;;;2.90;1.63;;;3.50;99.90;;;4.09;100.00;97476.56;4979655;28;20464;-76
2023/04/14 01:56:46;;;;;;;5.30;2.10;;;3.50;99.90;;;4.05;100.00;97470.09;4978266;28;20556;-75
2023/04/14 01:59:20;;;;;;;2.87;2.20;;;3.50;99.90;;;4.10;100.00;97470.41;4979449;28;20470;-75
2023/04/14 02:01:52;;;;;;;5.47;1.97;;;3.50;99.90;;;4.09;100.00;97473.16;4978680;28;20474;-75
2023/04/14 02:04:28;;;;;;;5.03;1.97;;;3.50;99.90;;;4.08;100.00;97464.59;4979516;28;20466;-75
2023/04/14 02:07:01;;;;;;;4.87;2.03;;;3.50;99.90;;;4.10;100.00;97467.00;4977821;28;20495;-75
2023/04/14 02:09:34;;;;;;;8.50;2.60;;;3.50;99.90;;;4.05;100.00;97465.72;4977648;28;20464;-75
2023/04/14 02:12:08;;;;;;;6.47;2.07;;;3.40;99.90;;;4.03;100.00;97459.06;4979019;28;20563;-75
2023/04/14 02:14:42;;;;;;;3.20;1.90;;;3.40;99.90;;;3.92;100.00;97462.78;4978130;28;20461;-75
2023/04/14 02:17:16;;;;;;;4.50;1.80;;;3.30;99.90;;;3.91;100.00;97473.31;4982412;28;20472;-75
2023/04/14 02:19:49;;;;;;;9.27;2.10;;;3.30;99.90;;;3.94;100.00;97462.63;4980099;28;20603;-75
2023/04/14 02:22:19;;;;;;;5.93;2.37;;;3.20;99.90;;;3.96;100.00;97460.69;4981159;28;20503;-75
2023/04/14 02:24:50;;;;;;;4.07;2.20;;;3.40;99.90;;;3.87;100.00;97461.66;4979896;28;20486;-75
2023/04/14 02:27:31;;;;;;;8.83;2.37;;;3.30;99.90;;;3.86;100.00;97467.78;4977525;28;20461;-75
2023/04/14 02:30:12;;;;;;;3.97;1.60;;;3.30;99.90;;;3.82;100.00;97471.66;4978427;28;20460;-75
2023/04/14 02:32:49;;;;;;;7.17;2.33;;;3.30;99.90;;;3.81;100.00;97467.47;4977235;28;21216;-76
2023/04/14 02:35:28;;;;;;;7.23;2.20;;;3.20;99.90;;;3.81;100.00;97472.66;4976731;28;20471;-75
2023/04/14 02:38:08;;;;;;;3.70;2.10;;;3.20;99.90;;;3.73;100.00;97473.44;4975950;28;20488;-75
2023/04/14 02:40:42;;;;;;;7.27;2.00;;;3.20;99.90;;;3.73;100.00;97480.38;4975192;28;20556;-75
2023/04/14 02:43:19;;;;;;;4.37;2.20;;;3.10;99.90;;;3.70;100.00;97471.16;4976177;28;20496;-75
2023/04/14 02:45:53;;;;;;;9.20;2.63;;;3.10;99.90;;;3.66;100.00;97472.44;4977212;28;20491;-75
2023/04/14 02:48:27;;;;;;;5.03;1.50;;;3.10;99.90;;;3.68;100.00;97473.09;4977444;28;20993;-75
2023/04/14 02:51:02;;;;;;;6.17;2.23;;;3.00;99.90;;;3.72;100.00;97478.75;4978295;28;20464;-75
2023/04/14 02:53:32;;;;;;;4.20;2.20;;;3.00;99.90;;;3.62;100.00;97473.72;4976174;28;20554;-75
2023/04/14 02:56:03;;;;;;;6.33;1.90;;;3.10;99.90;;;3.57;100.00;97482.94;4975283;28;21060;-75
2023/04/14 02:58:33;;;;;;;6.17;2.73;;;3.00;99.90;;;3.58;100.00;97479.34;4973605;28;20468;-75
2023/04/14 03:01:03;;;;;;;8.50;2.50;;;3.00;99.90;;;3.55;100.00;97473.53;4977116;28;20529;-75
2023/04/14 03:03:36;;;;;;;6.23;2.20;;;3.00;99.90;;;3.50;100.00;97480.16;4978677;28;20497;-75
2023/04/14 03:06:08;;;;;;;5.43;1.60;;;2.90;99.90;;;3.54;100.00;97474.50;4977482;28;20508;-75
2023/04/14 03:08:40;;;;;;;5.23;1.63;;;2.90;99.90;;;3.54;100.00;97474.50;4978029;28;20467;-75
2023/04/14 03:11:14;;;;;;;3.77;2.10;;;2.90;99.90;;;3.50;100.00;97475.81;4978790;28;20471;-76
2023/04/14 03:13:46;;;;;;;3.37;2.00;;;2.90;99.90;;;3.46;100.00;97477.09;4979798;28;20510;-75
2023/04/14 03:16:19;;;;;;;6.57;2.30;;;2.90;99.90;;;3.48;100.00;97487.25;4976019;28;20497;-75
2023/04/14 03:18:53;;;;;;;2.17;1.90;;;2.90;99.90;;;3.50;100.00;97486.16;4977720;28;20471;-75
2023/04/14 03:21:25;;;;;;;2.50;1.90;;;2.80;99.90;;;3.50;100.00;97486.16;4974715;28;20501;-73
2023/04/14 03:23:56;;;;;;;3.47;1.60;;;2.80;99.90;;;3.50;100.00;97491.31;4974564;28;20468;-75
2023/04/14 03:26:29;;;;;;;2.87;1.50;;;2.80;99.90;;;3.47;100.00;97483.06;4979511;28;21014;-75
2023/04/14 03:29:02;;;;;;;3.60;1.90;;;2.90;99.90;;;3.38;100.00;97486.56;4975531;28;20475;-75
2023/04/14 03:31:36;;;;;;;2.37;1.77;;;2.80;99.90;;;3.37;100.00;97490.91;4980932;28;20468;-75
2023/04/14 03:34:08;;;;;;;3.73;2.03;;;2.80;99.90;;;3.33;100.00;97491.41;4977933;28;20473;-75
2023/04/14 03:36:42;;;;;;;5.90;2.20;;;2.70;99.90;;;3.30;100.00;97483.94;4977167;28;20452;-75
2023/04/14 03:39:13;;;;;;;2.27;1.53;;;2.70;99.90;;;3.37;100.00;97485.75;4974889;28;20500;-75
2023/04/14 03:41:48;;;;;;;2.10;1.70;;;2.70;99.90;;;3.41;100.00;97484.47;4974059;28;21088;-75
2023/04/14 03:44:19;;;;;;;6.13;2.00;;;2.70;99.90;;;3.29;100.00;97493.50;4976477;28;20576;-75
2023/04/14 03:46:49;;;;;;;4.03;2.00;;;2.70;99.90;;;3.20;100.00;97486.66;4974794;28;20488;-75
2023/04/14 03:49:20;;;;;;;2.70;1.90;;;2.60;99.90;;;3.23;100.00;97488.13;4976444;28;20890;-75
2023/04/14 03:51:55;;;;;;;4.70;1.80;;;2.60;99.90;;;3.25;100.00;97492.19;4973560;28;20572;-75
2023/04/14 03:54:29;;;;;;;4.80;1.97;;;2.50;99.90;;;3.28;100.00;97497.03;4976716;28;20470;-75
2023/04/14 03:57:03;;;;;;;3.83;1.80;;;2.60;99.90;;;3.24;100.00;97498.28;4975886;28;20465;-75
2023/04/14 03:59:36;;;;;;;6.53;2.63;;;2.70;99.90;;;3.12;100.00;97496.16;4979828;28;20571;-74
2023/04/14 04:02:09;;;;;;;9.33;2.23;;;2.60;99.90;;;3.12;100.00;97496.16;4977496;28;20559;-75
2023/04/14 04:04:41;;;;;;;4.30;2.03;;;2.60;99.90;;;3.10;100.00;97501.44;4977658;28;20462;-75
2023/04/14 04:07:14;;;;;;;3.50;2.20;;;2.50;99.90;;;3.05;100.00;97495.97;4977594;28;21320;-74
2023/04/14 04:09:47;;;;;;;3.07;2.40;;;2.60;99.90;;;3.08;100.00;97495.66;4976585;28;20886;-75
2023/04/14 04:12:21;;;;;;;2.37;1.70;;;2.50;99.90;;;3.09;100.00;97502.41;4976721;28;20836;-75
2023/04/14 04:14:49;;;;;;;3.63;2.27;;;2.50;99.90;;;3.05;100.00;97501.91;4975734;28;20475;-75
2023/04/14 04:17:23;;;;;;;8.57;3.40;;;2.50;99.90;;;3.00;100.00;97498.19;4976100;28;20462;-75
2023/04/14 04:19:57;;;;;;;4.67;2.90;;;2.50;99.90;;;3.03;100.00;97503.03;4975958;28;20819;-75
2023/04/14 04:22:32;;;;;;;7.40;1.90;;;2.50;99.90;;;3.07;100.00;97506.94;4977890;28;20846;-75
2023/04/14 04:25:04;;;;;;;5.10;2.80;;;2.40;99.90;;;3.06;100.00;97505.31;4980609;28;20472;-76
2023/04/14 04:27:34;;;;;;;7.10;2.20;;;2.40;99.90;;;2.97;100.00;97507.03;4977079;28;20504;-76
2023/04/14 04:30:10;;;;;;;2.43;1.70;;;2.40;99.90;;;2.96;100.00;97507.19;4980693;28;20716;-76
2023/04/14 04:32:41;;;;;;;2.90;1.87;;;2.40;99.90;;;2.93;100.00;97520.41;4976905;28;20462;-76
2023/04/14 04:35:12;;;;;;;4.97;2.07;;;2.30;99.90;;;2.88;100.00;97518.28;4978368;28;20474;-76
2023/04/14 04:37:43;;;;;;;4.90;2.57;;;2.30;99.90;;;2.82;100.00;97520.66;4977801;28;21024;-76
2023/04/14 04:40:13;;;;;;;2.27;1.80;;;2.30;99.90;;;2.75;100.00;97506.72;4978845;28;20462;-75
2023/04/14 04:42:43;;;;;;;7.30;1.90;;;2.30;99.90;;;2.80;100.00;97504.50;4981629;28;20467;-75
2023/04/14 04:45:19;;;;;;;3.37;1.97;;;2.20;99.90;;;2.78;100.00;97514.97;4977233;28;20571;-76
2023/04/14 04:47:49;;;;;;;3.10;1.73;;;2.20;99.90;;;2.77;100.00;97512.56;4976910;28;21012;-76
2023/04/14 04:50:19;;;;;;;2.40;1.90;;;2.20;99.90;;;2.82;100.00;97515.47;4978757;28;20468;-75
2023/04/14 04:52:51;;;;;;;1.73;1.63;;;2.20;99.90;;;2.76;100.00;97521.25;4980583;28;20846;-76
2023/04/14 04:55:22;;;;;;;8.20;2.00;;;2.20;99.90;;;2.76;100.00;97518.69;4977288;28;20468;-76
2023/04/14 04:57:52;;;;;;;8.30;2.60;;;2.20;99.90;;;2.80;100.00;97522.59;4980058;28;20476;-76
2023/04/14 05:00:25;;;;;;;2.83;1.97;;;2.10;99.90;;;2.80;100.00;97523.41;4977604;28;20510;-76
2023/04/14 05:02:55;;;;;;;7.13;2.17;;;2.10;99.90;;;2.68;100.00;97521.19;4976830;28;20465;-75
2023/04/14 05:05:26;;;;;;;2.93;1.70;;;2.10;99.90;;;2.68;100.00;97528.94;4976497;28;20965;-76
2023/04/14 05:07:56;;;;;;;3.97;1.70;;;2.10;99.90;;;2.61;100.00;97527.91;4981841;28;20965;-76
2023/04/14 05:10:27;;;;;;;10.83;2.23;;;2.20;99.90;;;2.57;100.00;97534.38;4982376;28;20544;-76
2023/04/14 05:12:57;;;;;;;2.50;1.80;;;2.10;99.90;;;2.54;100.00;97538.84;4979745;28;20465;-76
2023/04/14 05:15:26;;;;;;;4.57;2.07;;;2.00;99.90;;;2.61;100.00;97533.06;4978503;28;20528;-76
2023/04/14 05:17:57;;;;;;;8.97;2.37;;;2.10;99.90;;;2.66;100.00;97541.19;4980142;28;20469;-76
2023/04/14 05:20:28;;;;;;;5.87;2.17;;;2.10;99.90;;;2.74;100.00;97541.25;4981863;28;20554;-76
2023/04/14 05:23:00;;;;;;;3.70;1.80;;;2.10;99.90;;;2.77;100.00;97546.13;4980159;28;20465;-76
2023/04/14 05:25:30;;;;;;;4.80;1.40;;;2.10;99.90;;;2.80;100.00;97540.66;4981245;28;20461;-76
2023/04/14 05:28:02;;;;;;;6.63;2.23;;;2.10;99.90;;;2.86;100.00;97547.78;4980412;28;20561;-76
2023/04/14 05:30:31;;;;;;;2.70;1.80;;;2.20;99.90;;;2.86;100.00;97540.03;4980642;28;20980;-76
2023/04/14 05:33:01;;;;;;;6.03;2.00;;;2.20;99.90;;;2.87;100.00;97541.66;4979570;28;20462;-76
2023/04/14 05:35:32;;;;;;;6.70;2.27;;;2.20;99.90;;;2.84;100.00;97539.41;4980623;28;20469;-76
2023/04/14 05:38:03;;;;;;;3.57;2.13;;;2.30;99.90;;;2.89;100.00;97537.97;4979238;28;20973;-76
2023/04/14 05:40:33;;;;;;;6.87;2.57;;;2.30;99.90;;;2.91;100.00;97543.00;4977739;28;20463;-76
2023/04/14 05:43:04;;;;;;;3.97;2.77;;;2.30;99.90;;;2.97;100.00;97544.97;4977503;28;20460;-76
2023/04/14 05:45:34;;;;;;;7.03;2.60;;;2.30;99.90;;;2.96;100.00;97533.00;4978444;28;20460;-76
2023/04/14 05:48:04;;;;;;;4.73;2.63;;;2.30;99.90;;;2.99;100.00;97541.25;4979314;28;20978;-75
2023/04/14 05:50:36;;;;;;;3.67;2.53;;;2.30;99.90;;;3.02;100.00;97537.56;4984044;28;20466;-76
2023/04/14 05:53:07;;;;;;;5.43;2.67;;;2.30;99.90;;;3.02;100.00;97543.53;4984273;28;20898;-75
2023/04/14 05:55:39;;;;;;;7.37;3.20;;;2.40;99.90;;;2.99;100.00;97537.88;4980748;28;20493;-76
2023/04/14 05:58:08;;;;;;;4.40;2.90;;;2.40;99.90;;;2.98;100.00;97542.25;4980836;28;20552;-76
2023/04/14 06:00:38;;;;;;;9.70;2.90;;;2.40;99.90;;;2.97;100.00;97534.63;4979242;28;20547;-76
2023/04/14 06:03:09;;;;;;;5.93;3.13;;;2.40;99.90;;;2.98;100.00;97533.69;4978505;28;20480;-76
2023/04/14 06:05:40;;;;;;;6.40;3.10;;;2.40;99.90;;;2.99;100.00;97540.44;4982651;28;20463;-75
2023/04/14 06:08:11;;;;;;;8.73;3.47;;;2.50;99.90;;;2.98;100.00;97536.25;4980776;28;20638;-75
2023/04/14 06:10:41;;;;;;;9.83;2.73;;;2.50;99.90;;;3.02;100.00;97529.81;4981493;28;20464;-76
2023/04/14 06:13:09;;;;;;;6.60;3.17;;;2.40;99.90;;;3.09;100.00;97533.41;4979031;28;20478;-76
2023/04/14 06:15:39;;;;;;;5.90;2.37;;;2.50;99.90;;;3.15;100.00;97524.25;4980329;28;20908;-76
2023/04/14 06:18:10;;;;;;;2.83;2.53;;;2.50;99.90;;;3.21;100.00;97527.03;4978379;28;20978;-76
2023/04/14 06:20:41;;;;;;;5.57;3.03;;;2.60;99.90;;;3.26;100.00;97524.81;4981305;28;20484;-75
2023/04/14 06:23:12;;;;;;;4.20;2.37;;;2.60;99.90;;;3.31;100.00;97516.56;4981470;28;20481;-76
2023/04/14 06:25:43;;;;;;;4.53;2.20;;;2.60;99.90;;;3.32;100.00;97516.44;4978896;28;20459;-76
2023/04/14 06:28:13;;;;;;;3.80;2.30;;;2.70;99.90;;;3.36;100.00;97511.75;4978060;28;20503;-75
2023/04/14 06:30:44;;;;;;;7.73;2.33;;;2.80;99.90;;;3.40;100.00;97513.06;4976088;28;20462;-75
2023/04/14 06:33:14;;;;;;;17.70;2.97;;;2.80;99.90;;;3.45;100.00;97519.38;4977841;28;20471;-76
2023/04/14 06:35:43;;;;;;;6.33;2.10;;;2.80;99.90;;;3.49;100.00;97507.78;4976729;28;20466;-76
2023/04/14 06:38:15;;;;;;;8.37;2.43;;;2.90;99.90;;;3.59;100.00;97501.66;4980082;28;20470;-75
2023/04/14 06:40:45;;;;;;;9.13;3.10;;;2.90;99.90;;;3.67;100.00;97507.69;4982333;28;20503;-76
2023/04/14 06:43:16;;;;;;;5.90;2.50;;;3.00;99.90;;;3.75;100.00;97504.31;4980222;28;20567;-76
2023/04/14 06:45:47;;;;;;;6.73;2.80;;;3.10;99.90;;;3.82;100.00;97500.91;4982533;28;21055;-75
2023/04/14 06:48:17;;;;;;;8.90;3.17;;;3.20;99.90;;;3.87;100.00;97497.84;4984321;28;21478;-76
2023/04/14 06:50:54;;;;;;;7.90;2.10;;;3.20;99.90;;;3.90;100.00;97497.53;4979425;28;20467;-77
2023/04/14 06:53:26;;;;;;;4.07;2.50;;;3.20;99.90;;;3.93;100.00;97498.03;4980033;28;20497;-76
2023/04/14 06:56:00;;;;;;;2.70;2.10;;;3.20;99.90;;;4.00;100.00;97493.84;4981761;28;20467;-76
2023/04/14 06:58:30;;;;;;;4.43;2.73;;;3.30;99.90;;;4.04;100.00;97492.56;4978803;28;20469;-76
2023/04/14 07:01:02;;;;;;;6.43;2.40;;;3.30;99.90;;;4.11;100.00;97482.38;4982133;28;20454;-76
2023/04/14 07:03:33;;;;;;;2.70;2.10;;;3.40;99.90;;;4.17;100.00;97481.72;4979322;28;20471;-75
2023/04/14 07:06:05;;;;;;;6.20;2.90;;;3.50;99.90;;;4.24;100.00;97474.94;4978693;28;20859;-75
2023/04/14 07:08:39;;;;;;;6.30;2.30;;;3.50;99.90;;;4.30;100.00;97469.16;4980005;28;20494;-77
2023/04/14 07:11:11;;;;;;;7.20;2.47;;;3.60;99.90;;;4.39;100.00;97472.53;4979057;28;20471;-75
2023/04/14 07:13:40;;;;;;;5.57;2.87;;;3.70;99.90;;;4.44;100.00;97459.91;4980257;28;20985;-76
2023/04/14 07:16:10;;;;;;;8.67;3.83;;;3.80;99.90;;;4.50;100.00;97457.47;4979016;28;20471;-76
2023/04/14 07:18:40;;;;;;;7.27;2.67;;;3.80;99.90;;;4.55;100.00;97462.97;4978898;28;20585;-76
2023/04/14 07:21:11;;;;;;;12.60;2.50;;;3.90;99.90;;;4.64;100.00;97470.72;4977375;28;20465;-75
2023/04/14 07:23:42;;;;;;;3.90;2.00;;;4.00;99.90;;;4.71;100.00;97469.09;4977437;28;20503;-76
2023/04/14 07:26:12;;;;;;;21.83;2.63;;;4.00;99.90;;;4.77;100.00;97466.66;4977696;28;20862;-76
2023/04/14 07:28:43;;;;;;;10.47;2.73;;;4.20;99.90;;;4.83;100.00;97470.34;4981194;28;20577;-75
2023/04/14 07:31:12;;;;;;;4.83;2.20;;;4.20;99.90;;;4.89;100.00;97465.34;4980564;28;20476;-75
2023/04/14 07:33:44;;;;;;;7.43;2.50;;;4.30;99.90;;;4.94;100.00;97457.06;4979333;28;20470;-76
2023/04/14 07:36:14;;;;;;;5.53;2.37;;;4.30;99.90;;;5.01;100.00;97455.41;4979930;28;20467;-76
2023/04/14 07:38:45;;;;;;;4.83;2.00;;;4.30;99.90;;;5.07;100.00;97463.34;4978713;28;21221;-76
2023/04/14 07:41:16;;;;;;;4.10;2.10;;;4.40;99.90;;;5.13;100.00;97459.28;4981007;28;20473;-76
2023/04/14 07:43:45;;;;;;;2.67;1.70;;;4.50;99.90;;;5.22;100.00;97466.03;4979850;28;20510;-76
2023/04/14 07:46:15;;;;;;;4.83;2.07;;;4.60;99.90;;;5.29;100.00;97456.63;4977380;28;20490;-76
2023/04/14 07:48:45;;;;;;;5.63;2.13;;;4.70;99.90;;;5.37;100.00;97455.78;4979143;28;20945;-75
2023/04/14 07:51:15;;;;;;;4.37;1.83;;;4.80;99.90;;;5.44;100.00;97451.53;4979765;28;20505;-76
2023/04/14 07:53:47;;;;;;;4.00;1.93;;;4.80;99.90;;;5.52;100.00;97454.88;4977856;28;20467;-75
2023/04/14 07:56:17;;;;;;;1.90;1.60;;;5.00;99.90;;;5.59;100.00;97452.41;4977868;28;20453;-75
2023/04/14 07:58:47;;;;;;;3.87;2.17;;;4.90;99.90;;;5.67;100.00;97454.97;4978353;28;20472;-76
2023/04/14 08:01:17;;;;;;;5.00;2.07;;;5.10;99.90;;;5.75;100.00;97454.94;4977799;28;20471;-76
2023/04/14 08:03:46;;;;;;;4.37;1.77;;;5.20;99.90;;;5.82;100.00;97447.28;4978037;28;20990;-76
2023/04/14 08:06:16;;;;;;;5.93;1.80;;;5.30;99.90;;;5.91;100.00;97446.25;4978803;28;20999;-76
2023/04/14 08:08:47;;;;;;;4.20;1.50;;;5.30;99.90;;;5.98;100.00;97442.00;4978966;28;20499;-76
2023/04/14 08:11:18;;;;;;;2.73;1.80;;;5.40;99.90;;;6.05;100.00;97437.72;4979190;28;20492;-75
2023/04/14 08:13:48;;;;;;;7.70;2.00;;;5.50;99.90;;;6.13;100.00;97429.91;4977548;28;20468;-76
2023/04/14 08:16:17;;;;;;;3.83;1.57;;;5.50;99.90;;;6.19;100.00;97426.59;4978907;28;20517;-76
2023/04/14 08:18:48;;;;;;;7.20;1.83;;;5.60;99.90;;;6.26;100.00;97424.91;4979042;28;20464;-76
2023/04/14 08:21:19;;;;;;;2.97;1.37;;;5.70;99.90;;;6.34;100.00;97432.66;4979429;28;20474;-76
2023/04/14 08:23:51;;;;;;;4.40;1.47;;;5.80;99.90;;;6.42;100.00;97422.16;4981092;28;20571;-76
2023/04/14 08:26:21;;;;;;;5.27;2.17;;;5.80;99.90;;;6.49;100.00;97423.06;4977314;28;20552;-75
2023/04/14 08:28:51;;;;;;;4.33;1.80;;;5.90;99.90;;;6.56;100.00;97423.19;4976609;28;20528;-76
2023/04/14 08:31:24;;;;;;;3.20;1.50;;;6.00;99.90;;;6.63;100.00;97420.69;4978927;28;20464;-76
2023/04/14 08:33:56;;;;;;;12.80;1.50;;;6.10;99.90;;;6.69;100.00;97414.78;4978405;28;20474;-76
2023/04/14 08:36:27;;;;;;;3.03;1.27;;;6.10;99.90;;;6.75;100.00;97414.88;4977435;28;20810;-76
2023/04/14 08:38:59;;;;;;;5.30;1.80;;;6.20;99.90;;;6.85;100.00;97409.41;4982343;28;20472;-76
2023/04/14 08:41:35;;;;;;;4.40;1.47;;;6.30;99.90;;;6.93;100.00;97417.13;4980836;28;20472;-76
2023/04/14 08:44:05;;;;;;;4.10;1.40;;;6.50;99.90;;;7.01;100.00;97409.25;4979388;28;20462;-76
2023/04/14 08:46:36;;;;;;;4.73;1.40;;;6.60;99.90;;;7.08;100.00;97416.13;4982252;28;20484;-76
2023/04/14 08:49:09;;;;;;;14.43;1.57;;;6.70;99.90;;;7.18;100.00;97415.88;4981081;28;20508;-76
2023/04/14 08:51:43;;;;;;;5.90;1.70;;;6.70;99.90;;;7.27;100.00;97406.97;4980081;28;20486;-76
2023/04/14 08:54:15;;;;;;;10.30;1.80;;;7.00;99.90;;;7.38;100.00;97413.50;4981595;28;20543;-76
2023/04/14 08:56:46;;;;;;;5.37;1.47;;;6.90;99.90;;;7.45;100.00;97403.97;4983082;28;20460;-76
2023/04/14 08:59:16;;;;;;;6.40;1.60;;;7.00;99.90;;;7.51;100.00;97400.63;4981838;28;20490;-76
2023/04/14 09:01:47;;;;;;;5.60;1.50;;;7.10;99.90;;;7.60;100.00;97405.53;4982055;28;20514;-76
2023/04/14 09:04:19;;;;;;;9.80;1.27;;;7.20;99.90;;;7.67;100.00;97405.59;4985076;28;20464;-76
2023/04/14 09:06:48;;;;;;;4.37;1.30;;;7.20;99.90;;;7.73;100.00;97393.66;4984313;28;20468;-76
2023/04/14 09:09:20;;;;;;;5.50;1.60;;;7.30;99.90;;;7.80;100.00;97394.53;4981989;28;20498;-76
2023/04/14 09:11:51;;;;;;;3.00;1.30;;;7.40;99.90;;;7.87;100.00;97398.81;4984917;28;21416;-76
2023/04/14 09:14:22;;;;;;;3.97;1.47;;;7.40;99.90;;;7.94;100.00;97388.47;4994926;28;20538;-76
2023/04/14 09:16:55;;;;;;;2.80;1.57;;;7.40;99.90;;;8.03;100.00;97392.53;4984782;28;20472;-76
2023/04/14 09:19:26;;;;;;;6.90;2.00;;;7.50;99.90;;;8.15;100.00;97395.47;4983528;28;20826;-76
2023/04/14 09:21:55;;;;;;;4.50;1.57;;;7.70;99.90;;;8.27;100.00;97391.34;4979629;28;20572;-76
2023/04/14 09:24:28;;;;;;;2.80;1.30;;;7.90;99.90;;;8.37;100.00;97392.66;4983179;28;20830;-76
2023/04/14 09:27:03;;;;;;;3.50;1.37;;;7.90;99.90;;;8.41;100.00;97393.88;4980987;28;20512;-76
2023/04/14 09:29:35;;;;;;;5.03;1.30;;;7.90;99.90;;;8.57;100.00;97385.78;4981476;28;20480;-76
2023/04/14 09:32:06;;;;;;;10.53;1.40;;;8.30;99.90;;;8.67;99.09;97382.84;4980162;28;20571;-76
2023/04/14 09:34:35;;;;;;;1.63;1.07;;;8.10;99.90;;;8.70;100.00;97386.88;4981350;28;20460;-76
2023/04/14 09:37:06;;;;;;;4.17;1.40;;;8.20;99.90;;;8.73;100.00;97387.28;4981343;28;20882;-76
2023/04/14 09:39:49;;;;;;;2.70;1.30;;;8.30;99.90;;;8.79;100.00;97381.31;4982179;28;20469;-76
2023/04/14 09:42:20;;;;;;;4.40;1.47;;;8.30;99.90;;;8.86;100.00;97376.94;4982181;28;20483;-76
2023/04/14 09:45:00;;;;;;;3.03;1.37;;;8.30;99.90;;;8.90;94.84;97379.97;4982002;28;20464;-76
2023/04/14 09:47:30;;;;;;;2.37;1.10;;;8.30;99.90;;;8.94;95.99;97373.38;4982188;28;20565;-76
2023/04/14 09:50:02;;;;;;;1.80;1.40;;;8.50;99.90;;;8.97;97.15;97371.19;4979409;28;21002;-76
2023/04/14 09:52:40;;;;;;;3.57;1.40;;;8.50;99.90;;;9.05;99.30;97380.66;4976802;28;20488;-76
2023/04/14 09:55:15;;;;;;;4.30;2.80;;;8.50;99.90;;;9.17;100.00;97367.84;4979821;28;20468;-76
2023/04/14 09:57:47;;;;;;;3.80;1.03;;;8.80;99.90;;;9.29;99.73;97371.53;4981612;28;20534;-76
2023/04/14 10:00:23;;;;;;;6.07;1.70;;;8.80;99.90;;;9.35;100.00;97371.53;4978298;28;20468;-76
2023/04/14 10:02:57;;;;;;;6.03;1.27;;;8.80;99.90;;;9.40;98.05;97366.56;4980325;28;20485;-76
2023/04/14 10:05:28;;;;;;;3.43;1.13;;;8.90;99.90;;;9.45;94.26;97360.72;4980553;28;20839;-76
2023/04/14 10:08:04;;;;;;;2.60;1.30;;;9.00;99.90;;;9.51;92.70;97357.34;4979259;28;20509;-76
2023/04/14 10:10:35;;;;;;;3.73;1.20;;;9.10;99.90;;;9.63;92.01;97347.13;4980525;28;20535;-76
2023/04/14 10:13:04;;;;;;;1.70;1.10;;;9.30;99.90;;;9.69;92.06;97348.94;4981686;28;20517;-76
2023/04/14 10:15:33;;;;;;;7.10;1.40;;;9.30;99.90;;;9.76;91.15;97352.34;4980302;28;20471;-76
2023/04/14 10:18:04;;;;;;;3.23;1.50;;;9.30;99.90;;;9.81;89.88;97348.16;4979571;28;20526;-76
2023/04/14 10:20:35;;;;;;;2.13;1.30;;;9.50;99.90;;;9.85;89.88;97345.97;4980598;28;20464;-76
2023/04/14 10:23:06;;;;;;;2.83;1.57;;;9.40;99.90;;;9.89;88.85;97331.50;4980411;28;20810;-76
2023/04/14 10:25:36;;;;;;;4.50;1.10;;;9.50;99.90;;;9.95;87.93;97328.09;4978708;28;20570;-76
2023/04/14 10:28:07;;;;;;;1.43;1.07;;;9.50;99.90;;;10.03;87.37;97322.66;4979153;28;20479;-76
2023/04/14 10:30:37;;;;;;;4.50;1.20;;;9.60;99.90;;;10.07;82.59;97323.84;4977804;28;21063;-76
2023/04/14 10:33:08;;;;;;;5.67;1.30;;;9.50;99.90;;;10.14;84.24;97319.47;4977279;28;20523;-76
2023/04/14 10:35:45;;;;;;;4.87;1.30;;;9.60;99.90;;;10.19;82.70;97311.84;4979943;28;20993;-76
2023/04/14 10:38:16;;;;;;;1.30;1.20;;;9.70;99.70;;;10.23;82.22;97313.03;4977982;28;20456;-76
2023/04/14 10:40:52;;;;;;;2.33;1.03;;;9.70;99.80;;;10.35;80.22;97306.16;4979922;28;20460;-76
2023/04/14 10:43:22;;;;;;;1.93;1.20;;;9.80;98.90;;;10.40;80.10;97314.22;4978380;28;20465;-76
2023/04/14 10:45:55;;;;;;;1.33;1.10;;;9.80;99.00;;;10.43;78.18;97303.34;4978967;28;20517;-76